• Join FlightAware (Why Join?)
  • Login
  • US Flag 
08:07AM EDT


 

Airport Tracker/Info


-or-


 

Live Flight TrackerFlight Track Log ✈ N770NC ✈ 10-Jun-2013 ✈ KBNA - KATL

Flight Track Log - Related Links

Times and Time Zones

All times are in EDT time to prevent confusion due to time zone crossing. See the N770NC flight status page for this flight to view local times or setup timezone preferences in your user account.

Time Position Orientation Groundspeed Altitude Reporting Facility
EDT Latitude Longitude Course Direction KTS MPH feet Rate Location/Type
04:38PM 36.1000 -86.6833 136° Southeast 164 189 1,400  Level Nashville TRACON
04:39PM 36.0333 -86.6833 180° South 224 258 3,300 1,500 Climbing Nashville TRACON
04:40PM 35.9500 -86.6833 180° South 269 310 4,700 1,680 Climbing Nashville TRACON
04:41PM 35.8441 -86.4156 145° Southeast  Level Estimated
04:41PM 35.8853 -86.6831 180° South 292 336 6,800  Level Memphis Center
04:42PM 35.7739 -86.3503 152° Southeast  Level Estimated
04:42PM 35.8058 -86.6789 178° South 301 346 8,900  Level Memphis Center
04:43PM 35.7036 -86.2851 136° Southeast  Level Estimated
04:43PM 35.7244 -86.6772 179° South 301 346 10,800  Level Memphis Center
04:44PM 35.6247 -86.6894 186° South 330 380 11,800 1,500 Climbing Memphis Center
04:45PM 35.5228 -86.7017 186° South 361 415 13,900 1,740 Climbing Memphis Center
04:46PM 35.4369 -86.6186 142° Southeast 381 438 15,300 1,440 Climbing Memphis Center
04:47PM 35.3544 -86.5131 134° Southeast 409 471 16,800 1,140 Climbing Memphis Center
04:48PM 35.2717 -86.4022 132° Southeast 436 502 17,600 960 Climbing Memphis Center
04:49PM 35.1867 -86.2844 131° Southeast 455 524 18,800 1,320 Climbing Memphis Center
04:50PM 35.1078 -86.1742 131° Southeast 462 532 20,300 1,140 Climbing Memphis Center
04:51PM 35.0142 -86.0569 134° Southeast 473 544 21,100 840 Climbing Memphis Center
04:53PM 34.7939 -85.8067 137° Southeast 495 570 23,000 540 Climbing Atlanta Center
04:54PM 34.6931 -85.6911 137° Southeast 500 575 23,000  Level Atlanta Center
04:55PM 34.5903 -85.5756 137° Southeast 500 575 23,000 -960 Level Atlanta Center
04:56PM 34.4872 -85.4678 139° Southeast 500 575 21,100 -2,700 Descending Atlanta Center
04:57PM 34.3861 -85.3703 141° Southeast 489 563 17,700 -3,000 Descending Atlanta Center
04:58PM 34.2889 -85.2808 143° Southeast 459 528 15,200 -1,800 Descending Atlanta Center
04:59PM 34.2211 -85.1769 128° Southeast 410 472 14,200 -600 Descending Atlanta Center
05:00PM 34.1489 -85.0731 130° Southeast 383 441 14,000 -120 Descending Atlanta Center
05:01PM 34.0933 -84.9869 128° Southeast 342 394 14,000 -240 Level Atlanta Center
05:02PM 34.0353 -84.9086 132° Southeast 325 374 13,600 -1,260 Descending Atlanta Center
05:03PM 33.9711 -84.8328 136° Southeast 319 367 11,500 -1,320 Descending Atlanta Center
05:04PM 33.9069 -84.7622 138° Southeast 319 367 11,000 -300 Descending Atlanta Center
05:05PM 33.8428 -84.6892 137° Southeast 319 367 11,000  Level Atlanta Center
05:06PM 33.7783 -84.6186 138° Southeast 319 367 11,000  Level Atlanta Center
05:07PM 33.7500 -84.5167 108° East 310 357 11,000 -600 Level Atlanta TRACON
05:08PM 33.7333 -84.4333 104° East 282 325 9,900 -1,560 Descending Atlanta TRACON
05:09PM 33.7333 -84.3500 90° East 280 322 8,100 -1,860 Descending Atlanta TRACON
05:10PM 33.7333 -84.2667 90° East 260 299 6,400 -1,620 Descending Atlanta TRACON
05:11PM 33.7167 -84.2000 107° East 238 274 5,100 -1,200 Descending Atlanta TRACON
05:12PM 33.6667 -84.2167 196° South 182 209 4,100 -900 Descending Atlanta TRACON
05:13PM 33.6500 -84.2667 248° West 184 212 3,300 -840 Descending Atlanta TRACON